createdAt,value
2019-03-23T00:01:03.949Z,81.76
2019-03-23T00:03:35.660Z,82.21
2019-03-23T00:06:06.766Z,81.70
2019-03-23T00:08:37.955Z,82.58
2019-03-23T00:11:08.717Z,82.12
2019-03-23T00:13:39.281Z,82.53
2019-03-23T00:16:10.067Z,83.26
2019-03-23T00:18:41.629Z,82.86
2019-03-23T00:21:12.676Z,82.62
2019-03-23T00:23:43.863Z,82.25
2019-03-23T00:26:15.037Z,82.03
2019-03-23T00:28:46.177Z,82.29
2019-03-23T00:31:17.246Z,82.59
2019-03-23T00:33:47.924Z,82.69
2019-03-23T00:36:18.540Z,82.65
2019-03-23T00:38:49.621Z,82.80
2019-03-23T00:41:20.808Z,82.54
2019-03-23T00:43:51.979Z,82.52
2019-03-23T00:46:23.024Z,82.62
2019-03-23T00:48:53.868Z,82.44
2019-03-23T00:51:24.893Z,82.78
2019-03-23T00:53:55.844Z,82.42
2019-03-23T00:56:26.616Z,82.07
2019-03-23T00:58:57.955Z,82.20
2019-03-23T01:01:28.836Z,82.21
2019-03-23T01:04:00.742Z,82.13
2019-03-23T01:06:32.971Z,82.17
2019-03-23T01:09:05.297Z,82.10
2019-03-23T01:11:36.541Z,82.11
2019-03-23T01:14:07.884Z,81.92
2019-03-23T01:16:39.011Z,82.38
2019-03-23T01:19:09.838Z,83.10
2019-03-23T01:21:40.686Z,82.59
2019-03-23T01:24:11.909Z,82.55
2019-03-23T01:26:42.715Z,82.60
2019-03-23T01:29:13.594Z,82.41
2019-03-23T01:31:44.767Z,82.44
2019-03-23T01:34:16.722Z,82.34
2019-03-23T01:36:47.704Z,82.83
2019-03-23T01:39:18.714Z,83.39
2019-03-23T01:41:49.685Z,82.95
2019-03-23T01:44:21.115Z,83.13
2019-03-23T01:46:51.819Z,83.12
2019-03-23T01:49:23.186Z,83.21
2019-03-23T01:51:54.238Z,83.00
2019-03-23T01:54:25.682Z,83.08
2019-03-23T01:56:56.745Z,82.75
2019-03-23T01:59:27.726Z,82.67
2019-03-23T02:01:58.369Z,82.46
2019-03-23T02:04:29.382Z,83.04
2019-03-23T02:07:00.124Z,83.44
2019-03-23T02:09:31.215Z,83.48
2019-03-23T02:12:02.426Z,84.25
2019-03-23T02:14:34.643Z,84.52
2019-03-23T02:17:05.769Z,84.67
2019-03-23T02:19:36.544Z,84.53
2019-03-23T02:22:07.295Z,84.36
2019-03-23T02:24:39.230Z,84.41
2019-03-23T02:27:10.243Z,84.08
2019-03-23T02:29:41.010Z,83.80
2019-03-23T02:32:12.418Z,83.68
2019-03-23T02:34:43.366Z,83.49
2019-03-23T02:37:26.912Z,83.55
2019-03-23T02:39:46.853Z,83.41
2019-03-23T02:42:17.717Z,83.32
2019-03-23T02:44:49.481Z,83.41
2019-03-23T02:47:20.247Z,83.51
2019-03-23T02:49:54.488Z,83.40
2019-03-23T02:52:25.225Z,83.57
2019-03-23T02:54:55.890Z,83.70
2019-03-23T02:57:26.587Z,83.48
2019-03-23T02:59:57.772Z,83.27
2019-03-23T03:02:28.596Z,83.36
2019-03-23T03:05:00.771Z,83.29
2019-03-23T03:07:41.784Z,83.09
2019-03-23T03:10:06.576Z,83.08
2019-03-23T03:12:37.722Z,83.24
2019-03-23T03:15:09.930Z,83.08
2019-03-23T03:17:40.817Z,83.12
2019-03-23T03:20:11.885Z,83.29
2019-03-23T03:22:42.937Z,83.38
2019-03-23T03:25:13.680Z,83.09
2019-03-23T03:27:45.093Z,83.28
2019-03-23T03:30:16.263Z,83.21
2019-03-23T03:32:47.316Z,82.91
2019-03-23T03:35:18.349Z,82.83
2019-03-23T03:37:56.311Z,82.86
2019-03-23T03:40:21.397Z,82.87
2019-03-23T03:42:52.282Z,83.04
2019-03-23T03:45:26.956Z,83.05
2019-03-23T03:47:57.869Z,82.96
2019-03-23T03:50:28.618Z,82.94
2019-03-23T03:52:59.857Z,82.77
2019-03-23T03:55:31.085Z,82.55
2019-03-23T03:58:03.089Z,82.71
2019-03-23T04:00:33.967Z,82.76
2019-03-23T04:03:05.014Z,83.03
2019-03-23T04:05:36.214Z,83.31
2019-03-23T04:08:11.735Z,83.13
2019-03-23T04:10:39.602Z,83.30
2019-03-23T04:13:10.386Z,83.56
2019-03-23T04:15:41.543Z,83.59
2019-03-23T04:18:12.593Z,83.96
2019-03-23T04:20:43.738Z,83.54
2019-03-23T04:23:15.000Z,83.63
2019-03-23T04:25:45.984Z,83.87
2019-03-23T04:28:17.028Z,84.25
2019-03-23T04:30:47.644Z,83.95
2019-03-23T04:33:18.493Z,83.77
2019-03-23T04:35:49.700Z,84.31
2019-03-23T04:38:22.901Z,84.57
2019-03-23T04:40:53.005Z,84.80
2019-03-23T04:43:23.948Z,85.14
2019-03-23T04:45:54.753Z,85.43
2019-03-23T04:48:26.013Z,86.47
2019-03-23T04:50:56.991Z,87.11
2019-03-23T04:53:27.724Z,87.12
2019-03-23T04:55:58.644Z,86.52
2019-03-23T04:58:29.743Z,86.69
2019-03-23T05:01:00.683Z,87.78
2019-03-23T05:03:31.922Z,88.11
2019-03-23T05:06:02.906Z,87.69
2019-03-23T05:08:34.157Z,87.52
2019-03-23T05:11:05.335Z,87.49
2019-03-23T05:13:36.815Z,87.33
2019-03-23T05:16:07.855Z,87.08
2019-03-23T05:18:39.063Z,86.83
2019-03-23T05:21:10.356Z,86.83
2019-03-23T05:23:41.767Z,85.99
2019-03-23T05:26:13.615Z,85.99
2019-03-23T05:28:44.863Z,86.44
2019-03-23T05:31:15.924Z,87.49
2019-03-23T05:33:46.785Z,87.54
2019-03-23T05:36:18.060Z,87.32
2019-03-23T05:38:48.609Z,87.05
2019-03-23T05:41:19.804Z,86.85
2019-03-23T05:43:50.868Z,87.51
2019-03-23T05:46:21.695Z,87.87
2019-03-23T05:48:52.899Z,88.45
2019-03-23T05:51:24.247Z,88.55
2019-03-23T05:53:55.266Z,88.42
2019-03-23T05:56:26.216Z,88.32
2019-03-23T05:58:57.140Z,88.95
2019-03-23T06:01:28.146Z,88.92
2019-03-23T06:03:59.142Z,88.78
2019-03-23T06:06:31.017Z,89.16
2019-03-23T06:09:02.174Z,89.04
2019-03-23T06:11:33.211Z,88.96
2019-03-23T06:14:05.129Z,89.81
2019-03-23T06:16:36.433Z,89.34
2019-03-23T06:19:07.483Z,89.53
2019-03-23T06:21:38.388Z,90.11
2019-03-23T06:24:09.356Z,90.15
2019-03-23T06:26:40.640Z,90.54
2019-03-23T06:29:12.252Z,90.79
2019-03-23T06:31:43.274Z,91.50
2019-03-23T06:34:14.180Z,91.59
2019-03-23T06:36:45.296Z,91.95
2019-03-23T06:39:16.241Z,92.27
2019-03-23T06:41:47.506Z,92.61
2019-03-23T06:44:18.927Z,92.45
2019-03-23T06:46:49.970Z,92.41
2019-03-23T06:49:21.127Z,92.73
2019-03-23T06:51:52.386Z,92.71
2019-03-23T06:54:23.351Z,92.95
2019-03-23T06:56:57.981Z,92.93
2019-03-23T06:59:29.084Z,92.84
2019-03-23T07:02:01.891Z,92.67
2019-03-23T07:04:33.090Z,92.41
2019-03-23T07:07:04.186Z,92.09
2019-03-23T07:09:35.098Z,91.59
2019-03-23T07:12:06.103Z,90.68
2019-03-23T07:14:37.449Z,89.93
2019-03-23T07:17:09.829Z,89.45
2019-03-23T07:19:42.391Z,89.22
2019-03-23T07:22:13.522Z,88.84
2019-03-23T07:24:44.994Z,88.95
2019-03-23T07:27:16.507Z,88.08
2019-03-23T07:29:47.471Z,87.85
2019-03-23T07:32:18.721Z,87.05
2019-03-23T07:34:50.152Z,86.25
2019-03-23T07:37:21.220Z,85.62
2019-03-23T07:39:51.918Z,85.14
2019-03-23T07:42:22.829Z,84.86
2019-03-23T07:44:54.129Z,84.29
2019-03-23T07:47:25.435Z,83.54
2019-03-23T07:49:56.766Z,83.52
2019-03-23T07:52:27.632Z,82.42
2019-03-23T07:55:01.815Z,82.43
2019-03-23T07:57:33.125Z,82.00
2019-03-23T08:00:08.353Z,82.60
2019-03-23T08:02:39.702Z,81.04
2019-03-23T08:05:11.006Z,80.67
2019-03-23T08:07:42.919Z,80.36
2019-03-23T08:10:16.919Z,79.74
2019-03-23T08:12:47.961Z,79.46
2019-03-23T08:15:18.977Z,78.91
2019-03-23T08:17:50.219Z,79.42
2019-03-23T08:20:22.265Z,78.45
2019-03-23T08:22:54.386Z,78.12
2019-03-23T08:25:29.417Z,77.50
2019-03-23T08:28:01.018Z,77.81
2019-03-23T08:30:31.624Z,77.10
2019-03-23T08:33:02.873Z,76.26
2019-03-23T08:35:35.413Z,76.26
2019-03-23T08:38:06.794Z,75.86
2019-03-23T08:40:38.184Z,76.05
2019-03-23T08:43:09.009Z,74.87
2019-03-23T08:45:40.875Z,74.14
2019-03-23T08:48:12.008Z,73.99
2019-03-23T08:50:43.200Z,72.98
2019-03-23T08:53:14.347Z,73.20
2019-03-23T08:55:45.302Z,73.44
2019-03-23T08:58:15.732Z,73.04
2019-03-23T09:00:46.251Z,72.37
2019-03-23T09:03:16.667Z,72.39
2019-03-23T09:05:47.862Z,72.29
2019-03-23T09:08:18.651Z,71.80
2019-03-23T09:10:49.018Z,70.84
2019-03-23T09:13:19.787Z,70.78
2019-03-23T09:15:50.545Z,68.27
2019-03-23T09:18:22.166Z,68.51
2019-03-23T09:20:52.420Z,67.86
2019-03-23T09:23:23.467Z,69.27
2019-03-23T09:25:54.143Z,67.55
2019-03-23T09:28:24.568Z,67.50
2019-03-23T09:30:55.155Z,66.60
2019-03-23T09:33:25.679Z,66.60
2019-03-23T09:35:56.162Z,64.69
2019-03-23T09:38:26.551Z,65.28
2019-03-23T09:40:56.975Z,65.01
2019-03-23T09:43:27.392Z,64.50
2019-03-23T09:45:57.938Z,64.14
2019-03-23T09:48:28.385Z,64.37
2019-03-23T09:50:59.010Z,63.65
2019-03-23T09:53:30.490Z,63.50
2019-03-23T09:56:00.994Z,63.80
2019-03-23T09:58:31.862Z,62.82
2019-03-23T10:01:02.405Z,64.21
2019-03-23T10:03:32.876Z,63.27
2019-03-23T10:09:10.846Z,61.94
2019-03-23T10:11:41.356Z,62.68
2019-03-23T10:14:11.954Z,61.55
2019-03-23T10:16:42.511Z,61.07
2019-03-23T10:19:13.074Z,60.50
2019-03-23T10:21:43.603Z,60.37
2019-03-23T10:24:14.063Z,59.60
2019-03-23T10:26:44.609Z,60.60
2019-03-23T10:29:17.489Z,59.79
2019-03-23T10:31:49.511Z,58.86
2019-03-23T10:34:20.063Z,59.62
2019-03-23T10:36:53.919Z,59.53
2019-03-23T10:39:28.619Z,60.06
2019-03-23T10:41:59.073Z,60.12
2019-03-23T10:44:29.645Z,58.55
2019-03-23T10:47:00.355Z,58.89
2019-03-23T10:49:33.175Z,57.70
2019-03-23T10:52:13.687Z,57.41
2019-03-23T10:54:45.378Z,57.19
2019-03-23T10:57:23.359Z,58.07
2019-03-23T10:59:59.236Z,57.13
2019-03-23T11:02:31.839Z,56.72
2019-03-23T11:05:07.597Z,56.33
2019-03-23T11:07:41.742Z,55.46
2019-03-23T11:10:13.900Z,54.64
2019-03-23T11:12:48.905Z,54.09
2019-03-23T11:15:20.575Z,54.16
2019-03-23T11:17:51.503Z,53.57
2019-03-23T11:20:24.615Z,54.69
2019-03-23T11:22:58.827Z,53.94
2019-03-23T11:25:29.464Z,53.69
2019-03-23T11:28:00.807Z,53.87
2019-03-23T11:30:31.806Z,53.09
2019-03-23T11:33:04.604Z,52.86
2019-03-23T11:35:35.220Z,53.78
2019-03-23T11:38:06.767Z,53.83
2019-03-23T11:40:39.316Z,53.49
2019-03-23T11:43:10.239Z,53.00
2019-03-23T11:45:41.975Z,53.06
2019-03-23T11:48:14.274Z,53.67
2019-03-23T11:50:44.866Z,51.15
2019-03-23T11:53:15.846Z,51.67
2019-03-23T11:55:50.206Z,51.27
2019-03-23T11:58:21.207Z,50.19
2019-03-23T12:00:52.286Z,51.54
2019-03-23T12:03:23.783Z,51.17
2019-03-23T12:05:54.784Z,51.26
2019-03-23T12:08:25.903Z,52.16
2019-03-23T12:11:02.961Z,51.31
2019-03-23T12:13:53.718Z,51.22
2019-03-23T12:16:24.879Z,49.58
2019-03-23T12:18:55.542Z,50.34
2019-03-23T12:21:26.326Z,49.03
2019-03-23T12:23:57.727Z,49.80
2019-03-23T12:26:28.886Z,49.69
2019-03-23T12:28:59.984Z,50.09
2019-03-23T12:31:31.061Z,49.82
2019-03-23T12:34:02.263Z,49.17
2019-03-23T12:36:33.421Z,49.22
2019-03-23T12:39:05.565Z,50.26
2019-03-23T12:41:36.492Z,48.27
2019-03-23T12:44:07.261Z,49.58
2019-03-23T12:46:47.861Z,50.02
2019-03-23T12:49:11.129Z,49.71
2019-03-23T12:51:42.270Z,49.26
2019-03-23T12:54:14.436Z,50.17
2019-03-23T12:56:45.458Z,47.21
2019-03-23T12:59:16.134Z,48.09
2019-03-23T13:01:49.672Z,48.18
2019-03-23T13:04:20.333Z,49.05
2019-03-23T13:06:51.236Z,47.53
2019-03-23T13:09:27.171Z,47.39
2019-03-23T13:12:00.972Z,47.70
2019-03-23T13:14:40.217Z,46.31
2019-03-23T13:20:09.266Z,46.65
2019-03-23T13:22:40.298Z,46.88
2019-03-23T13:25:11.193Z,46.89
2019-03-23T13:27:42.376Z,47.36
2019-03-23T13:30:15.819Z,46.76
2019-03-23T13:32:47.444Z,47.74
2019-03-23T13:35:18.353Z,47.12
2019-03-23T13:37:49.656Z,46.31
2019-03-23T13:40:21.100Z,46.35
2019-03-23T13:42:53.843Z,46.10
2019-03-23T13:45:25.225Z,46.23
2019-03-23T13:47:56.468Z,46.56
2019-03-23T13:50:29.923Z,47.29
2019-03-23T13:53:02.231Z,47.00
2019-03-23T13:55:34.786Z,48.23
2019-03-23T13:58:08.638Z,47.55
2019-03-23T14:00:40.472Z,46.74
2019-03-23T14:03:11.829Z,47.75
2019-03-23T14:05:48.631Z,46.85
2019-03-23T14:08:20.193Z,47.52
2019-03-23T14:10:51.264Z,48.01
2019-03-23T14:13:22.951Z,47.50
2019-03-23T14:15:55.184Z,47.23
2019-03-23T14:18:26.122Z,46.85
2019-03-23T14:20:57.505Z,47.17
2019-03-23T14:23:29.304Z,46.60
2019-03-23T14:26:01.905Z,46.07
2019-03-23T14:28:33.564Z,46.23
2019-03-23T14:31:04.568Z,45.45
2019-03-23T14:33:35.266Z,45.64
2019-03-23T14:36:06.602Z,45.34
2019-03-23T14:38:37.727Z,44.86
2019-03-23T14:41:08.742Z,44.54
2019-03-23T14:43:41.035Z,45.51
2019-03-23T14:46:15.293Z,45.00
2019-03-23T14:48:46.340Z,44.95
2019-03-23T14:51:17.698Z,45.82
2019-03-23T14:53:48.298Z,44.07
2019-03-23T14:56:20.657Z,44.81
2019-03-23T14:58:53.086Z,44.44
2019-03-23T15:01:23.919Z,44.86
2019-03-23T15:03:55.136Z,45.37
2019-03-23T15:06:27.120Z,45.59
2019-03-23T15:09:01.077Z,45.86
2019-03-23T15:11:34.600Z,45.37
2019-03-23T15:14:06.976Z,45.25
2019-03-23T15:16:39.067Z,45.45
2019-03-23T15:19:11.676Z,44.39
2019-03-23T15:21:44.829Z,44.88
2019-03-23T15:24:16.258Z,45.02
2019-03-23T15:26:47.877Z,45.16
2019-03-23T15:30:57.722Z,44.84
2019-03-23T15:32:21.233Z,44.97
2019-03-23T15:34:54.218Z,44.82
2019-03-23T15:37:26.278Z,45.82
2019-03-23T15:39:57.205Z,44.63
2019-03-23T15:42:28.396Z,44.48
2019-03-23T15:45:00.819Z,45.36
2019-03-23T15:47:33.858Z,45.44
2019-03-23T15:50:08.815Z,45.58
2019-03-23T15:52:41.338Z,46.09
2019-03-23T15:55:12.177Z,45.97
2019-03-23T15:57:43.498Z,46.43
2019-03-23T16:00:16.423Z,46.49
2019-03-23T16:02:50.241Z,46.87
2019-03-23T16:05:22.771Z,46.96
2019-03-23T16:08:06.935Z,47.59
2019-03-23T16:10:38.052Z,47.50
2019-03-23T16:13:08.990Z,47.60
2019-03-23T16:15:40.335Z,47.53
2019-03-23T16:18:14.693Z,47.36
2019-03-23T16:20:48.868Z,47.80
2019-03-23T16:23:30.016Z,47.91
2019-03-23T16:26:14.006Z,47.41
2019-03-23T16:28:45.250Z,47.57
2019-03-23T16:31:28.746Z,48.02
2019-03-23T16:34:10.182Z,48.56
2019-03-23T16:36:44.369Z,48.88
2019-03-23T16:39:15.437Z,51.95
2019-03-23T16:41:47.675Z,55.86
2019-03-23T16:44:24.676Z,57.73
2019-03-23T16:47:04.815Z,59.04
2019-03-23T16:49:37.828Z,59.57
2019-03-23T16:52:11.631Z,59.75
2019-03-23T16:54:48.398Z,60.43
2019-03-23T16:57:23.633Z,60.88
2019-03-23T16:59:58.902Z,61.26
2019-03-23T17:02:59.479Z,61.29
2019-03-23T17:05:45.009Z,61.25
2019-03-23T17:15:27.972Z,62.25
2019-03-23T17:18:22.553Z,63.08
2019-03-23T17:27:09.968Z,60.94
2019-03-23T17:29:56.274Z,61.54
2019-03-23T17:35:46.453Z,63.56
2019-03-23T17:38:27.003Z,64.48
2019-03-23T17:41:19.004Z,65.28
2019-03-23T17:47:01.793Z,66.84
2019-03-23T17:54:00.505Z,67.57
2019-03-23T17:55:42.755Z,68.39
2019-03-23T17:58:13.895Z,68.79
2019-03-23T18:01:01.331Z,69.18
2019-03-23T18:03:32.141Z,69.09
2019-03-23T18:06:03.085Z,69.28
2019-03-23T18:08:33.788Z,69.87
2019-03-23T18:11:04.404Z,69.77
2019-03-23T18:13:34.948Z,69.78
2019-03-23T18:16:05.692Z,69.79
2019-03-23T18:18:40.383Z,69.88
2019-03-23T18:21:12.341Z,69.86
2019-03-23T18:23:42.997Z,69.89
2019-03-23T18:26:18.084Z,70.06
2019-03-23T18:28:48.829Z,70.14
2019-03-23T18:31:19.373Z,70.40
2019-03-23T18:33:51.189Z,70.61
2019-03-23T18:36:38.669Z,70.75
2019-03-23T18:39:11.148Z,70.78
2019-03-23T18:41:42.051Z,70.55
2019-03-23T18:44:16.372Z,70.55
2019-03-23T18:46:46.509Z,70.69
2019-03-23T18:49:20.720Z,70.66
2019-03-23T18:51:53.189Z,70.55
2019-03-23T18:54:26.917Z,70.49
2019-03-23T18:56:58.979Z,70.71
2019-03-23T18:59:30.381Z,71.08
2019-03-23T19:02:12.677Z,71.32
2019-03-23T19:04:45.108Z,71.32
2019-03-23T19:07:21.651Z,71.62
2019-03-23T19:09:55.560Z,71.90
2019-03-23T19:12:31.813Z,71.90
2019-03-23T19:18:10.889Z,72.11
2019-03-23T19:20:58.549Z,72.14
2019-03-23T19:23:56.902Z,72.44
2019-03-23T19:26:32.828Z,72.60
2019-03-23T19:29:05.227Z,72.53
2019-03-23T19:31:40.652Z,72.51
2019-03-23T19:34:14.125Z,72.60
2019-03-23T19:36:46.232Z,72.70
2019-03-23T19:42:28.013Z,73.01
2019-03-23T19:45:14.662Z,73.08
2019-03-23T19:47:55.301Z,73.15
2019-03-23T19:50:30.053Z,73.01
2019-03-23T19:53:04.907Z,72.81
2019-03-23T19:55:41.317Z,73.07
2019-03-23T19:58:15.469Z,73.19
2019-03-23T20:00:48.406Z,73.44
2019-03-23T20:03:21.627Z,73.53
2019-03-23T20:05:53.588Z,73.62
2019-03-23T20:08:31.193Z,73.42
2019-03-23T20:11:07.466Z,73.69
2019-03-23T20:13:38.387Z,73.64
2019-03-23T20:16:12.204Z,73.66
2019-03-23T20:19:08.561Z,73.49
2019-03-23T20:21:57.573Z,73.83
2019-03-23T20:24:55.216Z,74.24
2019-03-23T20:27:34.602Z,74.52
2019-03-23T20:30:20.254Z,74.73
2019-03-23T20:32:52.836Z,74.95
2019-03-23T20:36:01.062Z,75.14
2019-03-23T20:39:07.315Z,75.80
2019-03-23T20:42:10.734Z,75.97
2019-03-23T20:44:58.768Z,75.48
2019-03-23T20:47:58.607Z,75.56
2019-03-23T20:51:06.998Z,75.06
2019-03-23T20:53:58.008Z,74.52
2019-03-23T20:56:48.514Z,74.39
2019-03-23T20:59:27.168Z,74.40
2019-03-23T21:02:13.566Z,74.51
2019-03-23T21:05:21.085Z,74.62
2019-03-23T21:08:30.200Z,74.70
2019-03-23T21:11:10.947Z,74.83
2019-03-23T21:17:51.092Z,74.63
2019-03-23T21:20:25.226Z,74.58
2019-03-23T21:22:57.446Z,74.15
2019-03-23T21:25:29.802Z,74.07
2019-03-23T21:28:01.371Z,73.92
2019-03-23T21:30:32.584Z,73.97
2019-03-23T21:33:03.676Z,73.82
2019-03-23T21:35:36.765Z,73.63
2019-03-23T21:38:07.703Z,73.59
2019-03-23T21:40:39.585Z,73.52
2019-03-23T21:43:11.280Z,73.76
2019-03-23T21:45:42.813Z,73.77
2019-03-23T21:48:14.039Z,73.96
2019-03-23T21:50:47.633Z,74.16
2019-03-23T21:53:17.518Z,74.27
2019-03-23T21:55:48.759Z,74.19
2019-03-23T21:58:19.734Z,74.28
2019-03-23T22:00:50.806Z,74.25
2019-03-23T22:03:22.837Z,74.25
2019-03-23T22:05:53.718Z,74.46
2019-03-23T22:08:24.918Z,74.72
2019-03-23T22:11:02.551Z,75.09
2019-03-23T22:13:33.920Z,75.02
2019-03-23T22:16:06.320Z,75.10
2019-03-23T22:18:40.069Z,75.00
2019-03-23T22:21:11.717Z,75.12
2019-03-23T22:23:43.324Z,75.66
2019-03-23T22:26:14.526Z,75.65
2019-03-23T22:28:46.757Z,76.01
2019-03-23T22:31:18.317Z,76.24
2019-03-23T22:33:50.845Z,76.54
2019-03-23T22:36:22.931Z,76.63
2019-03-23T22:38:54.532Z,76.46
2019-03-23T22:41:25.653Z,76.64
2019-03-23T22:43:56.670Z,76.92
2019-03-23T22:46:29.933Z,76.65
2019-03-23T22:49:00.781Z,76.60
2019-03-23T22:51:31.690Z,76.46
2019-03-23T22:54:03.057Z,76.55
2019-03-23T22:56:34.212Z,76.70
2019-03-23T22:59:04.849Z,76.54
2019-03-23T23:01:35.695Z,76.62
2019-03-23T23:04:07.131Z,76.88
2019-03-23T23:06:38.331Z,77.22
2019-03-23T23:09:10.250Z,77.14
2019-03-23T23:11:41.905Z,77.09
2019-03-23T23:14:15.696Z,77.36
2019-03-23T23:16:47.169Z,77.56
2019-03-23T23:19:18.491Z,77.99
2019-03-23T23:21:50.581Z,78.06
2019-03-23T23:24:21.292Z,78.33
2019-03-23T23:26:52.292Z,78.58
2019-03-23T23:29:22.973Z,78.55
2019-03-23T23:31:55.252Z,78.40
2019-03-23T23:34:26.057Z,78.66
2019-03-23T23:36:57.609Z,78.88
2019-03-23T23:39:28.571Z,78.87
2019-03-23T23:42:00.063Z,79.07
2019-03-23T23:44:30.991Z,79.05
2019-03-23T23:47:01.858Z,79.14
2019-03-23T23:49:32.691Z,79.26
2019-03-23T23:52:03.852Z,79.14
2019-03-23T23:54:35.085Z,78.93
2019-03-23T23:57:06.073Z,79.24
2019-03-23T23:59:37.140Z,79.06
